createdAt,value
2018-01-22T00:00:22.017Z,1012.66
2018-01-22T00:01:21.957Z,1012.71
2018-01-22T00:02:21.903Z,1012.68
2018-01-22T00:03:21.851Z,1012.66
2018-01-22T00:04:21.795Z,1012.63
2018-01-22T00:05:21.741Z,1012.61
2018-01-22T00:06:21.687Z,1012.60
2018-01-22T00:07:21.633Z,1012.51
2018-01-22T00:08:21.580Z,1012.44
2018-01-22T00:09:21.527Z,1012.48
2018-01-22T00:10:21.473Z,1012.51
2018-01-22T00:11:21.421Z,1012.49
2018-01-22T00:12:21.374Z,1012.44
2018-01-22T00:13:21.311Z,1012.43
2018-01-22T00:14:21.258Z,1012.43
2018-01-22T00:15:21.203Z,1012.39
2018-01-22T00:16:21.149Z,1012.43
2018-01-22T00:17:21.096Z,1012.46
2018-01-22T00:18:21.043Z,1012.40
2018-01-22T00:19:20.995Z,1012.41
2018-01-22T00:20:20.935Z,1012.35
2018-01-22T00:21:20.881Z,1012.36
2018-01-22T00:22:20.826Z,1012.36
2018-01-22T00:23:20.774Z,1012.35
2018-01-22T00:24:20.720Z,1012.31
2018-01-22T00:25:20.669Z,1012.31
2018-01-22T00:26:20.612Z,1012.36
2018-01-22T00:27:20.557Z,1012.29
2018-01-22T00:28:20.504Z,1012.27
2018-01-22T00:29:20.900Z,1012.25
2018-01-22T00:30:20.397Z,1012.23
2018-01-22T00:31:20.792Z,1012.25
2018-01-22T00:32:20.638Z,1012.24
2018-01-22T00:33:20.538Z,1012.21
2018-01-22T00:34:20.432Z,1012.26
2018-01-22T00:35:20.427Z,1012.25
2018-01-22T00:36:20.323Z,1012.22
2018-01-22T00:37:20.220Z,1012.19
2018-01-22T00:38:20.067Z,1012.13
2018-01-22T00:39:19.964Z,1012.08
2018-01-22T00:40:19.859Z,1012.09
2018-01-22T00:41:19.855Z,1012.04
2018-01-22T00:42:19.751Z,1012.06
2018-01-22T00:43:19.696Z,1012.08
2018-01-22T00:44:19.643Z,1012.06
2018-01-22T00:45:19.589Z,1012.05
2018-01-22T00:46:19.537Z,1011.99
2018-01-22T00:47:19.481Z,1012.00
2018-01-22T00:48:19.427Z,1012.05
2018-01-22T00:49:19.375Z,1012.03
2018-01-22T00:50:19.320Z,1012.04
2018-01-22T00:51:19.266Z,1012.06
2018-01-22T00:52:19.212Z,1012.04
2018-01-22T00:53:19.158Z,1012.04
2018-01-22T00:54:19.104Z,1012.07
2018-01-22T00:55:19.050Z,1012.02
2018-01-22T00:56:18.997Z,1012.05
2018-01-22T00:57:18.943Z,1012.03
2018-01-22T00:58:18.890Z,1012.00
2018-01-22T00:59:18.835Z,1011.99
2018-01-22T01:00:18.781Z,1011.96
2018-01-22T01:01:18.728Z,1011.97
2018-01-22T01:02:18.674Z,1011.94
2018-01-22T01:03:18.620Z,1011.93
2018-01-22T01:04:18.616Z,1011.95
2018-01-22T01:05:18.512Z,1011.88
2018-01-22T01:06:18.459Z,1011.83
2018-01-22T01:07:18.405Z,1011.80
2018-01-22T01:08:18.351Z,1011.76
2018-01-22T01:09:18.297Z,1011.73
2018-01-22T01:10:18.244Z,1011.77
2018-01-22T01:11:18.190Z,1011.76
2018-01-22T01:12:18.136Z,1011.76
2018-01-22T01:13:18.082Z,1011.69
2018-01-22T01:14:18.029Z,1011.71
2018-01-22T01:15:17.974Z,1011.64
2018-01-22T01:16:18.020Z,1011.67
2018-01-22T01:17:17.867Z,1011.59
2018-01-22T01:18:17.814Z,1011.58
2018-01-22T01:19:17.759Z,1011.58
2018-01-22T01:20:17.705Z,1011.63
2018-01-22T01:21:17.652Z,1011.61
2018-01-22T01:22:17.598Z,1011.51
2018-01-22T01:23:17.544Z,1011.60
2018-01-22T01:24:17.490Z,1011.52
2018-01-22T01:25:17.436Z,1011.59
2018-01-22T01:26:17.383Z,1011.54
2018-01-22T01:27:17.328Z,1011.51
2018-01-22T01:28:17.274Z,1011.56
2018-01-22T01:29:17.220Z,1011.54
2018-01-22T01:30:17.166Z,1011.57
2018-01-22T01:31:17.112Z,1011.59
2018-01-22T01:32:17.058Z,1011.57
2018-01-22T01:33:17.004Z,1011.64
2018-01-22T01:34:16.969Z,1011.62
2018-01-22T01:35:16.896Z,1011.59
2018-01-22T01:36:16.842Z,1011.55
2018-01-22T01:37:16.787Z,1011.52
2018-01-22T01:38:16.734Z,1011.57
2018-01-22T01:39:16.679Z,1011.47
2018-01-22T01:40:16.625Z,1011.48
2018-01-22T01:41:16.571Z,1011.51
2018-01-22T01:42:16.518Z,1011.42
2018-01-22T01:43:16.463Z,1011.47
2018-01-22T01:44:16.409Z,1011.40
2018-01-22T01:45:16.355Z,1011.39
2018-01-22T01:46:16.301Z,1011.34
2018-01-22T01:47:16.246Z,1011.32
2018-01-22T01:48:16.193Z,1011.28
2018-01-22T01:49:16.139Z,1011.35
2018-01-22T01:50:16.085Z,1011.30
2018-01-22T01:51:16.030Z,1011.37
2018-01-22T01:52:15.976Z,1011.37
2018-01-22T01:53:15.922Z,1011.31
2018-01-22T01:54:15.869Z,1011.27
2018-01-22T01:55:15.814Z,1011.28
2018-01-22T01:56:15.767Z,1011.30
2018-01-22T01:57:15.706Z,1011.28
2018-01-22T01:58:15.652Z,1011.22
2018-01-22T01:59:15.597Z,1011.28
2018-01-22T02:00:15.546Z,1011.23
2018-01-22T02:01:15.489Z,1011.22
2018-01-22T02:02:15.435Z,1011.27
2018-01-22T02:03:15.381Z,1011.23
2018-01-22T02:04:15.328Z,1011.22
2018-01-22T02:05:15.272Z,1011.24
2018-01-22T02:06:15.218Z,1011.16
2018-01-22T02:07:15.163Z,1011.12
2018-01-22T02:08:15.110Z,1011.10
2018-01-22T02:09:15.056Z,1011.07
2018-01-22T02:10:15.003Z,1011.06
2018-01-22T02:11:14.947Z,1011.03
2018-01-22T02:12:14.893Z,1011.01
2018-01-22T02:13:14.838Z,1010.97
2018-01-22T02:14:14.785Z,1010.91
2018-01-22T02:15:14.730Z,1010.87
2018-01-22T02:16:14.676Z,1010.86
2018-01-22T02:17:14.621Z,1010.84
2018-01-22T02:18:14.568Z,1010.79
2018-01-22T02:19:14.513Z,1010.79
2018-01-22T02:20:14.460Z,1010.71
2018-01-22T02:21:14.405Z,1010.80
2018-01-22T02:22:14.351Z,1010.79
2018-01-22T02:23:14.296Z,1010.79
2018-01-22T02:24:14.242Z,1010.75
2018-01-22T02:25:14.188Z,1010.72
2018-01-22T02:26:14.134Z,1010.76
2018-01-22T02:27:14.079Z,1010.76
2018-01-22T02:28:14.025Z,1010.69
2018-01-22T02:29:13.970Z,1010.69
2018-01-22T02:30:13.917Z,1010.65
2018-01-22T02:31:13.862Z,1010.64
2018-01-22T02:32:13.808Z,1010.71
2018-01-22T02:33:13.753Z,1010.71
2018-01-22T02:34:13.699Z,1010.73
2018-01-22T02:35:13.643Z,1010.68
2018-01-22T02:36:13.590Z,1010.75
2018-01-22T02:37:13.536Z,1010.62
2018-01-22T02:38:13.482Z,1010.60
2018-01-22T02:39:13.426Z,1010.58
2018-01-22T02:40:13.373Z,1010.60
2018-01-22T02:41:13.318Z,1010.57
2018-01-22T02:42:13.264Z,1010.63
2018-01-22T02:43:13.209Z,1010.58
2018-01-22T02:44:13.155Z,1010.47
2018-01-22T02:45:13.102Z,1010.48
2018-01-22T02:46:13.047Z,1010.47
2018-01-22T02:47:12.992Z,1010.46
2018-01-22T02:48:12.940Z,1010.48
2018-01-22T02:49:12.884Z,1010.47
2018-01-22T02:50:12.831Z,1010.48
2018-01-22T02:51:12.773Z,1010.41
2018-01-22T02:52:12.720Z,1010.43
2018-01-22T02:53:12.675Z,1010.37
2018-01-22T02:54:12.612Z,1010.38
2018-01-22T02:55:12.557Z,1010.42
2018-01-22T02:56:12.503Z,1010.38
2018-01-22T02:57:12.449Z,1010.35
2018-01-22T02:58:12.395Z,1010.29
2018-01-22T02:59:12.339Z,1010.31
2018-01-22T03:00:12.285Z,1010.28
2018-01-22T03:01:12.232Z,1010.41
2018-01-22T03:02:12.178Z,1010.25
2018-01-22T03:03:12.122Z,1010.36
2018-01-22T03:04:12.069Z,1010.35
2018-01-22T03:05:12.015Z,1010.26
2018-01-22T03:06:11.961Z,1010.27
2018-01-22T03:07:11.906Z,1010.22
2018-01-22T03:08:11.862Z,1010.23
2018-01-22T03:09:11.798Z,1010.20
2018-01-22T03:10:11.744Z,1010.16
2018-01-22T03:11:11.690Z,1010.14
2018-01-22T03:12:11.686Z,1010.16
2018-01-22T03:13:11.582Z,1010.18
2018-01-22T03:14:11.528Z,1010.15
2018-01-22T03:15:11.473Z,1010.17
2018-01-22T03:16:11.419Z,1010.18
2018-01-22T03:17:11.365Z,1010.25
2018-01-22T03:18:11.312Z,1010.12
2018-01-22T03:19:11.258Z,1010.24
2018-01-22T03:20:11.207Z,1010.27
2018-01-22T03:21:11.149Z,1010.26
2018-01-22T03:22:11.095Z,1010.24
2018-01-22T03:23:11.040Z,1010.26
2018-01-22T03:24:10.986Z,1010.17
2018-01-22T03:25:10.932Z,1010.21
2018-01-22T03:26:10.880Z,1010.26
2018-01-22T03:27:10.823Z,1010.22
2018-01-22T03:28:10.775Z,1010.23
2018-01-22T03:29:10.715Z,1010.24
2018-01-22T03:30:10.664Z,1010.28
2018-01-22T03:31:10.609Z,1010.29
2018-01-22T03:32:10.553Z,1010.25
2018-01-22T03:33:10.498Z,1010.30
2018-01-22T03:34:10.444Z,1010.27
2018-01-22T03:35:10.389Z,1010.29
2018-01-22T03:36:10.334Z,1010.27
2018-01-22T03:37:10.281Z,1010.25
2018-01-22T03:38:10.226Z,1010.25
2018-01-22T03:39:10.171Z,1010.14
2018-01-22T03:40:10.117Z,1010.14
2018-01-22T03:41:10.063Z,1010.12
2018-01-22T03:42:10.009Z,1010.08
2018-01-22T03:43:09.953Z,1010.09
2018-01-22T03:44:09.899Z,1010.11
2018-01-22T03:45:09.895Z,1010.11
2018-01-22T03:46:09.790Z,1010.04
2018-01-22T03:47:09.736Z,1010.10
2018-01-22T03:48:09.681Z,1010.15
2018-01-22T03:49:09.627Z,1010.08
2018-01-22T03:50:09.573Z,1010.10
2018-01-22T03:51:09.518Z,1010.07
2018-01-22T03:52:09.463Z,1010.01
2018-01-22T03:53:09.409Z,1010.05
2018-01-22T03:54:09.355Z,1009.99
2018-01-22T03:55:09.300Z,1009.93
2018-01-22T03:56:09.245Z,1009.94
2018-01-22T03:57:09.192Z,1009.99
2018-01-22T03:58:09.137Z,1009.90
2018-01-22T03:59:09.082Z,1009.87
2018-01-22T04:00:09.028Z,1009.85
2018-01-22T04:01:08.974Z,1009.87
2018-01-22T04:02:08.920Z,1009.84
2018-01-22T04:03:08.866Z,1009.83
2018-01-22T04:04:08.810Z,1009.88
2018-01-22T04:05:08.757Z,1009.88
2018-01-22T04:06:08.703Z,1009.84
2018-01-22T04:07:08.648Z,1009.87
2018-01-22T04:08:08.594Z,1009.84
2018-01-22T04:09:08.540Z,1009.94
2018-01-22T04:10:08.486Z,1009.89
2018-01-22T04:11:08.431Z,1009.88
2018-01-22T04:12:08.378Z,1009.87
2018-01-22T04:13:08.781Z,1009.85
2018-01-22T04:14:08.670Z,1009.80
2018-01-22T04:15:08.665Z,1009.80
2018-01-22T04:16:08.561Z,1009.80
2018-01-22T04:17:08.456Z,1009.71
2018-01-22T04:18:08.357Z,1009.69
2018-01-22T04:19:08.248Z,1009.74
2018-01-22T04:20:08.244Z,1009.74
2018-01-22T04:21:08.090Z,1009.73
2018-01-22T04:22:07.985Z,1009.78
2018-01-22T04:23:07.881Z,1009.84
2018-01-22T04:24:07.775Z,1009.72
2018-01-22T04:25:07.822Z,1009.68
2018-01-22T04:26:07.718Z,1009.65
2018-01-22T04:27:07.613Z,1009.72
2018-01-22T04:28:07.559Z,1009.79
2018-01-22T04:29:07.456Z,1009.71
2018-01-22T04:30:07.401Z,1009.65
2018-01-22T04:31:07.346Z,1009.62
2018-01-22T04:32:07.292Z,1009.77
2018-01-22T04:33:07.238Z,1009.62
2018-01-22T04:34:07.184Z,1009.60
2018-01-22T04:35:07.128Z,1009.70
2018-01-22T04:36:07.076Z,1009.49
2018-01-22T04:37:07.023Z,1009.46
2018-01-22T04:38:06.966Z,1009.46
2018-01-22T04:39:06.913Z,1009.44
2018-01-22T04:40:06.857Z,1009.33
2018-01-22T04:41:06.802Z,1009.33
2018-01-22T04:42:06.748Z,1009.34
2018-01-22T04:43:06.693Z,1009.29
2018-01-22T04:44:06.639Z,1009.28
2018-01-22T04:45:06.585Z,1009.30
2018-01-22T04:46:06.532Z,1009.37
2018-01-22T04:47:06.478Z,1009.35
2018-01-22T04:48:06.421Z,1009.30
2018-01-22T04:49:06.367Z,1009.27
2018-01-22T04:50:06.313Z,1009.21
2018-01-22T04:51:06.258Z,1009.20
2018-01-22T04:52:06.204Z,1009.16
2018-01-22T04:53:06.150Z,1009.14
2018-01-22T04:54:06.095Z,1009.13
2018-01-22T04:55:06.040Z,1009.07
2018-01-22T04:56:05.986Z,1009.08
2018-01-22T04:57:05.932Z,1009.08
2018-01-22T04:58:05.877Z,1009.06
2018-01-22T04:59:05.825Z,1009.05
2018-01-22T05:00:05.768Z,1009.05
2018-01-22T05:01:05.714Z,1008.95
2018-01-22T05:02:05.659Z,1008.99
2018-01-22T05:03:05.603Z,1008.98
2018-01-22T05:04:05.600Z,1008.89
2018-01-22T05:05:05.496Z,1008.84
2018-01-22T05:06:05.442Z,1008.84
2018-01-22T05:07:05.387Z,1008.81
2018-01-22T05:08:05.333Z,1008.82
2018-01-22T05:09:05.278Z,1008.76
2018-01-22T05:10:05.225Z,1008.72
2018-01-22T05:11:05.169Z,1008.70
2018-01-22T05:12:05.115Z,1008.71
2018-01-22T05:13:05.061Z,1008.82
2018-01-22T05:14:05.007Z,1008.81
2018-01-22T05:15:04.952Z,1008.77
2018-01-22T05:16:04.898Z,1008.71
2018-01-22T05:17:04.844Z,1008.65
2018-01-22T05:18:04.790Z,1008.60
2018-01-22T05:19:04.734Z,1008.57
2018-01-22T05:20:04.680Z,1008.62
2018-01-22T05:21:04.626Z,1008.65
2018-01-22T05:22:04.572Z,1008.74
2018-01-22T05:23:04.517Z,1008.58
2018-01-22T05:24:04.462Z,1008.60
2018-01-22T05:25:04.409Z,1008.57
2018-01-22T05:26:04.354Z,1008.55
2018-01-22T05:27:04.299Z,1008.53
2018-01-22T05:28:04.245Z,1008.54
2018-01-22T05:29:04.191Z,1008.50
2018-01-22T05:30:04.136Z,1008.59
2018-01-22T05:31:04.081Z,1008.65
2018-01-22T05:32:04.027Z,1008.56
2018-01-22T05:33:03.975Z,1008.58
2018-01-22T05:34:03.918Z,1008.63
2018-01-22T05:35:03.869Z,1008.56
2018-01-22T05:36:03.809Z,1008.63
2018-01-22T05:37:03.754Z,1008.61
2018-01-22T05:38:03.700Z,1008.60
2018-01-22T05:39:03.646Z,1008.65
2018-01-22T05:40:03.591Z,1008.61
2018-01-22T05:41:03.542Z,1008.59
2018-01-22T05:42:03.483Z,1008.57
2018-01-22T05:43:03.428Z,1008.55
2018-01-22T05:44:03.373Z,1008.55
2018-01-22T05:45:03.320Z,1008.60
2018-01-22T05:46:03.264Z,1008.57
2018-01-22T05:47:03.209Z,1008.61
2018-01-22T05:48:03.155Z,1008.64
2018-01-22T05:49:03.101Z,1008.58
2018-01-22T05:50:03.048Z,1008.68
2018-01-22T05:51:02.992Z,1008.61
2018-01-22T05:52:02.943Z,1008.59
2018-01-22T05:53:02.883Z,1008.66
2018-01-22T05:54:02.829Z,1008.65
2018-01-22T05:55:02.773Z,1008.70
2018-01-22T05:56:02.720Z,1008.67
2018-01-22T05:57:02.666Z,1008.68
2018-01-22T05:58:02.611Z,1008.68
2018-01-22T05:59:02.556Z,1008.56
2018-01-22T06:00:02.503Z,1008.62
2018-01-22T06:01:02.448Z,1008.59
2018-01-22T06:02:02.394Z,1008.52
2018-01-22T06:03:02.338Z,1008.55
2018-01-22T06:04:02.285Z,1008.47
2018-01-22T06:05:02.230Z,1008.52
2018-01-22T06:06:02.176Z,1008.50
2018-01-22T06:07:02.121Z,1008.49
2018-01-22T06:08:02.069Z,1008.47
2018-01-22T06:09:02.014Z,1008.49
2018-01-22T06:10:01.959Z,1008.44
2018-01-22T06:11:01.910Z,1008.42
2018-01-22T06:12:01.850Z,1008.46
2018-01-22T06:13:01.796Z,1008.43
2018-01-22T06:14:01.741Z,1008.36
2018-01-22T06:15:01.687Z,1008.36
2018-01-22T06:16:01.633Z,1008.34
2018-01-22T06:17:01.579Z,1008.36
2018-01-22T06:18:01.525Z,1008.36
2018-01-22T06:19:01.470Z,1008.27
2018-01-22T06:20:01.415Z,1008.25
2018-01-22T06:21:01.362Z,1008.31
2018-01-22T06:22:01.408Z,1008.27
2018-01-22T06:23:01.253Z,1008.18
2018-01-22T06:24:01.198Z,1008.15
2018-01-22T06:25:01.145Z,1008.20
2018-01-22T06:26:01.091Z,1008.27
2018-01-22T06:27:01.036Z,1008.20
2018-01-22T06:28:00.987Z,1008.21
2018-01-22T06:29:00.927Z,1008.21
2018-01-22T06:30:00.873Z,1008.11
2018-01-22T06:31:00.818Z,1008.11
2018-01-22T06:32:00.764Z,1008.00
2018-01-22T06:33:00.710Z,1008.01
2018-01-22T06:34:00.656Z,1007.98
2018-01-22T06:35:00.601Z,1007.95
2018-01-22T06:36:00.547Z,1007.95
2018-01-22T06:37:00.493Z,1008.05
2018-01-22T06:38:00.439Z,1007.97
2018-01-22T06:39:00.386Z,1007.89
2018-01-22T06:40:00.331Z,1007.88
2018-01-22T06:41:00.326Z,1007.86
2018-01-22T06:42:00.227Z,1007.90
2018-01-22T06:43:00.166Z,1007.96
2018-01-22T06:44:00.113Z,1007.97
2018-01-22T06:45:00.060Z,1007.93
2018-01-22T06:46:00.007Z,1007.93
2018-01-22T06:46:59.949Z,1007.84
2018-01-22T06:47:59.895Z,1007.83
2018-01-22T06:48:59.844Z,1007.79
2018-01-22T06:49:59.786Z,1007.83
2018-01-22T06:50:59.732Z,1007.93
2018-01-22T06:51:59.677Z,1007.93
2018-01-22T06:52:59.627Z,1007.83
2018-01-22T06:53:59.569Z,1007.84
2018-01-22T06:54:59.514Z,1007.90
2018-01-22T06:55:59.459Z,1007.81
2018-01-22T06:56:59.406Z,1007.73
2018-01-22T06:57:59.352Z,1007.78
2018-01-22T06:58:59.296Z,1007.75
2018-01-22T06:59:59.242Z,1007.81
2018-01-22T07:00:59.187Z,1007.77
2018-01-22T07:01:59.133Z,1007.78
2018-01-22T07:02:59.078Z,1007.81
2018-01-22T07:03:59.025Z,1007.86
2018-01-22T07:04:58.974Z,1007.82
2018-01-22T07:05:58.916Z,1007.86
2018-01-22T07:06:58.861Z,1007.85
2018-01-22T07:07:58.807Z,1007.83
2018-01-22T07:08:58.752Z,1007.85
2018-01-22T07:09:58.705Z,1007.76
2018-01-22T07:10:58.645Z,1007.85
2018-01-22T07:11:58.589Z,1007.84
2018-01-22T07:12:58.536Z,1007.85
2018-01-22T07:13:58.481Z,1007.89
2018-01-22T07:14:58.426Z,1007.94
2018-01-22T07:15:58.372Z,1008.00
2018-01-22T07:16:58.318Z,1007.97
2018-01-22T07:17:58.265Z,1007.96
2018-01-22T07:18:58.214Z,1007.95
2018-01-22T07:19:58.155Z,1008.00
2018-01-22T07:20:58.100Z,1008.02
2018-01-22T07:21:58.046Z,1008.03
2018-01-22T07:22:57.991Z,1008.06
2018-01-22T07:23:57.936Z,1008.11
2018-01-22T07:24:57.883Z,1008.12
2018-01-22T07:25:57.828Z,1008.17
2018-01-22T07:26:57.775Z,1008.16
2018-01-22T07:27:57.719Z,1008.23
2018-01-22T07:28:57.715Z,1008.20
2018-01-22T07:29:57.610Z,1008.22
2018-01-22T07:30:57.557Z,1008.20
2018-01-22T07:31:57.501Z,1008.22
2018-01-22T07:32:57.449Z,1008.19
2018-01-22T07:33:57.395Z,1008.25
2018-01-22T07:34:57.339Z,1008.28
2018-01-22T07:35:57.285Z,1008.27
2018-01-22T07:36:57.231Z,1008.26
2018-01-22T07:37:57.178Z,1008.19
2018-01-22T07:38:57.122Z,1008.24
2018-01-22T07:39:57.069Z,1008.19
2018-01-22T07:40:57.016Z,1008.17
2018-01-22T07:41:56.960Z,1008.19
2018-01-22T07:42:56.905Z,1008.16
2018-01-22T07:43:56.850Z,1008.18
2018-01-22T07:44:56.797Z,1008.12
2018-01-22T07:45:56.743Z,1008.16
2018-01-22T07:46:56.705Z,1008.13
2018-01-22T07:47:56.634Z,1008.10
2018-01-22T07:48:56.580Z,1008.17
2018-01-22T07:49:56.526Z,1008.28
2018-01-22T07:50:56.471Z,1008.20
2018-01-22T07:51:56.471Z,1008.22
2018-01-22T07:52:56.363Z,1008.16
2018-01-22T07:53:56.307Z,1008.19
2018-01-22T07:54:56.253Z,1008.16
2018-01-22T07:55:56.204Z,1008.15
2018-01-22T07:56:56.146Z,1008.24
2018-01-22T07:57:56.094Z,1008.17
2018-01-22T07:58:56.037Z,1008.17
2018-01-22T07:59:55.984Z,1008.20
2018-01-22T08:00:55.929Z,1008.14
2018-01-22T08:01:55.875Z,1008.09
2018-01-22T08:02:55.820Z,1008.06
2018-01-22T08:03:55.765Z,1008.00
2018-01-22T08:04:55.737Z,1007.94
2018-01-22T08:05:55.658Z,1007.98
2018-01-22T08:06:55.602Z,1007.96
2018-01-22T08:07:55.547Z,1007.92
2018-01-22T08:08:55.497Z,1008.02
2018-01-22T08:09:55.441Z,1008.10
2018-01-22T08:10:55.386Z,1008.10
2018-01-22T08:11:55.330Z,1008.05
2018-01-22T08:12:55.278Z,1008.02
2018-01-22T08:13:55.622Z,1008.09
2018-01-22T08:14:55.569Z,1008.05
2018-01-22T08:15:55.521Z,1008.05
2018-01-22T08:16:55.413Z,1008.04
2018-01-22T08:17:55.307Z,1008.02
2018-01-22T08:18:55.202Z,1007.99
2018-01-22T08:19:55.099Z,1008.02
2018-01-22T08:20:55.094Z,1008.04
2018-01-22T08:21:54.990Z,1007.99
2018-01-22T08:22:54.836Z,1008.05
2018-01-22T08:23:54.732Z,1008.01
2018-01-22T08:24:54.678Z,1008.12
2018-01-22T08:25:54.574Z,1008.12
2018-01-22T08:26:54.521Z,1008.12
2018-01-22T08:27:54.466Z,1008.11
2018-01-22T08:28:54.411Z,1008.13
2018-01-22T08:29:54.358Z,1008.14
2018-01-22T08:30:54.303Z,1008.01
2018-01-22T08:31:54.249Z,1008.05
2018-01-22T08:32:54.196Z,1007.94
2018-01-22T08:33:54.142Z,1007.93
2018-01-22T08:34:54.088Z,1007.91
2018-01-22T08:35:54.033Z,1007.93
2018-01-22T08:36:53.980Z,1007.88
2018-01-22T08:37:53.925Z,1007.87
2018-01-22T08:38:53.871Z,1007.85
2018-01-22T08:39:53.819Z,1007.85
2018-01-22T08:40:53.765Z,1007.73
2018-01-22T08:41:53.714Z,1007.78
2018-01-22T08:42:53.657Z,1007.69
2018-01-22T08:43:53.603Z,1007.62
2018-01-22T08:44:53.550Z,1007.64
2018-01-22T08:45:53.495Z,1007.62
2018-01-22T08:46:53.442Z,1007.57
2018-01-22T08:47:53.388Z,1007.58
2018-01-22T08:48:53.335Z,1007.53
2018-01-22T08:49:53.281Z,1007.58
2018-01-22T08:50:53.227Z,1007.60
2018-01-22T08:51:53.174Z,1007.61
2018-01-22T08:52:53.120Z,1007.62
2018-01-22T08:53:53.072Z,1007.63
2018-01-22T08:54:53.013Z,1007.64
2018-01-22T08:55:52.959Z,1007.65
2018-01-22T08:56:52.911Z,1007.72
2018-01-22T08:57:52.853Z,1007.71
2018-01-22T08:58:52.798Z,1007.73
2018-01-22T08:59:52.745Z,1007.69
2018-01-22T09:00:52.692Z,1007.69
2018-01-22T09:01:52.641Z,1007.69
2018-01-22T09:02:52.584Z,1007.77
2018-01-22T09:03:52.531Z,1007.72
2018-01-22T09:04:52.479Z,1007.71
2018-01-22T09:05:52.423Z,1007.68
2018-01-22T09:06:52.372Z,1007.67
2018-01-22T09:07:52.317Z,1007.70
2018-01-22T09:08:52.270Z,1007.67
2018-01-22T09:09:52.212Z,1007.57
2018-01-22T09:10:52.156Z,1007.61
2018-01-22T09:11:52.102Z,1007.59
2018-01-22T09:12:52.049Z,1007.59
2018-01-22T09:13:51.995Z,1007.66
2018-01-22T09:14:51.942Z,1007.62
2018-01-22T09:15:51.890Z,1007.71
2018-01-22T09:16:51.837Z,1007.77
2018-01-22T09:17:51.783Z,1007.67
2018-01-22T09:18:51.730Z,1007.71
2018-01-22T09:19:51.678Z,1007.67
2018-01-22T09:20:51.625Z,1007.63
2018-01-22T09:21:51.572Z,1007.68
2018-01-22T09:22:51.519Z,1007.70
2018-01-22T09:23:51.466Z,1007.73
2018-01-22T09:24:51.413Z,1007.83
2018-01-22T09:25:51.362Z,1007.68
2018-01-22T09:26:51.356Z,1007.67
2018-01-22T09:27:51.258Z,1007.73
2018-01-22T09:28:51.207Z,1007.75
2018-01-22T09:29:51.153Z,1007.73
2018-01-22T09:30:51.103Z,1007.82
2018-01-22T09:31:51.049Z,1007.66
2018-01-22T09:32:50.997Z,1007.73
2018-01-22T09:33:50.946Z,1007.77
2018-01-22T09:34:50.893Z,1007.75
2018-01-22T09:35:50.842Z,1007.62
2018-01-22T09:36:50.790Z,1007.52
2018-01-22T09:37:50.744Z,1007.58
2018-01-22T09:38:50.686Z,1007.55
2018-01-22T09:39:50.635Z,1007.53
2018-01-22T09:40:50.585Z,1007.57
2018-01-22T09:41:50.583Z,1007.52
2018-01-22T09:42:50.482Z,1007.48
2018-01-22T09:43:50.431Z,1007.45
2018-01-22T09:44:50.379Z,1007.61
2018-01-22T09:45:50.328Z,1007.58
2018-01-22T09:46:50.276Z,1007.53
2018-01-22T09:47:50.225Z,1007.59
2018-01-22T09:48:50.173Z,1007.60
2018-01-22T09:49:50.122Z,1007.61
2018-01-22T09:50:50.070Z,1007.51
2018-01-22T09:51:50.019Z,1007.62
2018-01-22T09:52:49.966Z,1007.49
2018-01-22T09:53:49.917Z,1007.51
2018-01-22T09:54:49.863Z,1007.51
2018-01-22T09:55:49.813Z,1007.46
2018-01-22T09:56:49.758Z,1007.51
2018-01-22T09:57:49.706Z,1007.47
2018-01-22T09:58:49.655Z,1007.44
2018-01-22T09:59:49.654Z,1007.48
2018-01-22T10:00:49.552Z,1007.46
2018-01-22T10:01:49.500Z,1007.52
2018-01-22T10:02:49.448Z,1007.46
2018-01-22T10:03:49.396Z,1007.55
2018-01-22T10:04:49.344Z,1007.57
2018-01-22T10:05:49.302Z,1007.52
2018-01-22T10:06:49.240Z,1007.44
2018-01-22T10:07:49.188Z,1007.54
2018-01-22T10:08:49.137Z,1007.49
2018-01-22T10:09:49.086Z,1007.54
2018-01-22T10:10:49.032Z,1007.44
2018-01-22T10:11:48.980Z,1007.41
2018-01-22T10:12:48.928Z,1007.36
2018-01-22T10:13:48.876Z,1007.27
2018-01-22T10:14:48.825Z,1007.20
2018-01-22T10:15:48.771Z,1007.22
2018-01-22T10:16:48.718Z,1007.19
2018-01-22T10:17:48.666Z,1007.32
2018-01-22T10:18:48.611Z,1007.08
2018-01-22T10:19:48.561Z,1007.11
2018-01-22T10:20:48.508Z,1007.20
2018-01-22T10:21:48.456Z,1007.11
2018-01-22T10:22:48.402Z,1007.16
2018-01-22T10:23:48.350Z,1007.15
2018-01-22T10:24:48.298Z,1007.28
2018-01-22T10:25:48.246Z,1007.18
2018-01-22T10:26:48.194Z,1007.19
2018-01-22T10:27:48.139Z,1007.23
2018-01-22T10:28:48.091Z,1007.24
2018-01-22T10:29:48.036Z,1007.35
2018-01-22T10:30:47.983Z,1007.28
2018-01-22T10:31:47.931Z,1007.20
2018-01-22T10:32:47.878Z,1007.24
2018-01-22T10:33:47.825Z,1007.17
2018-01-22T10:34:47.772Z,1007.26
2018-01-22T10:35:47.720Z,1007.39
2018-01-22T10:36:47.667Z,1007.24
2018-01-22T10:37:47.616Z,1007.24
2018-01-22T10:38:47.562Z,1007.22
2018-01-22T10:39:47.510Z,1007.25
2018-01-22T10:40:47.459Z,1007.22
2018-01-22T10:41:47.405Z,1007.15
2018-01-22T10:42:47.351Z,1007.15
2018-01-22T10:43:47.315Z,1007.05
2018-01-22T10:44:47.246Z,1007.16
2018-01-22T10:45:47.195Z,1007.19
2018-01-22T10:46:47.142Z,1007.15
2018-01-22T10:47:47.089Z,1007.08
2018-01-22T10:48:47.037Z,1007.12
2018-01-22T10:49:46.984Z,1007.09
2018-01-22T10:50:46.931Z,1007.11
2018-01-22T10:51:46.879Z,1007.09
2018-01-22T10:52:46.826Z,1007.03
2018-01-22T10:53:46.774Z,1006.96
2018-01-22T10:54:46.721Z,1006.99
2018-01-22T10:55:46.668Z,1006.88
2018-01-22T10:56:46.616Z,1006.88
2018-01-22T10:57:46.563Z,1006.93
2018-01-22T10:58:46.510Z,1006.88
2018-01-22T10:59:46.469Z,1006.84
2018-01-22T11:00:46.405Z,1006.82
2018-01-22T11:01:46.353Z,1006.81
2018-01-22T11:02:46.299Z,1006.79
2018-01-22T11:03:46.247Z,1006.74
2018-01-22T11:04:46.194Z,1006.79
2018-01-22T11:05:46.142Z,1006.79
2018-01-22T11:06:46.087Z,1006.77
2018-01-22T11:07:46.036Z,1006.77
2018-01-22T11:08:45.985Z,1006.82
2018-01-22T11:09:45.931Z,1006.74
2018-01-22T11:10:45.878Z,1006.68
2018-01-22T11:11:45.825Z,1006.63
2018-01-22T11:12:45.772Z,1006.68
2018-01-22T11:13:45.720Z,1006.61
2018-01-22T11:14:45.667Z,1006.46
2018-01-22T11:15:45.614Z,1006.53
2018-01-22T11:16:45.564Z,1006.52
2018-01-22T11:17:45.509Z,1006.51
2018-01-22T11:18:45.455Z,1006.46
2018-01-22T11:19:45.435Z,1006.41
2018-01-22T11:20:45.356Z,1006.42
2018-01-22T11:21:45.298Z,1006.37
2018-01-22T11:22:45.245Z,1006.40
2018-01-22T11:23:45.192Z,1006.39
2018-01-22T11:24:45.140Z,1006.45
2018-01-22T11:25:45.088Z,1006.31
2018-01-22T11:26:45.034Z,1006.33
2018-01-22T11:27:44.982Z,1006.24
2018-01-22T11:28:44.931Z,1006.21
2018-01-22T11:29:44.877Z,1006.27
2018-01-22T11:30:44.824Z,1006.24
2018-01-22T11:31:44.771Z,1006.31
2018-01-22T11:32:44.720Z,1006.33
2018-01-22T11:33:44.667Z,1006.33
2018-01-22T11:34:44.614Z,1006.30
2018-01-22T11:35:44.561Z,1006.35
2018-01-22T11:36:44.508Z,1006.31
2018-01-22T11:37:44.456Z,1006.31
2018-01-22T11:38:44.404Z,1006.21
2018-01-22T11:39:44.351Z,1006.22
2018-01-22T11:40:44.300Z,1006.11
2018-01-22T11:41:44.245Z,1006.07
2018-01-22T11:42:44.193Z,1006.06
2018-01-22T11:43:44.142Z,1006.05
2018-01-22T11:44:44.089Z,1006.11
2018-01-22T11:45:44.037Z,1006.10
2018-01-22T11:46:43.983Z,1006.05
2018-01-22T11:47:43.932Z,1006.09
2018-01-22T11:48:43.878Z,1006.03
2018-01-22T11:49:43.827Z,1005.94
2018-01-22T11:50:43.772Z,1005.93
2018-01-22T11:51:43.720Z,1005.95
2018-01-22T11:52:43.668Z,1005.94
2018-01-22T11:53:43.617Z,1005.91
2018-01-22T11:54:43.562Z,1005.92
2018-01-22T11:55:43.510Z,1005.98
2018-01-22T11:56:43.458Z,1005.99
2018-01-22T11:57:43.404Z,1006.04
2018-01-22T11:58:43.352Z,1006.03
2018-01-22T11:59:43.298Z,1006.00
2018-01-22T12:00:43.246Z,1006.02
2018-01-22T12:01:43.197Z,1005.94
2018-01-22T12:02:43.141Z,1005.89
2018-01-22T12:03:43.089Z,1005.87
2018-01-22T12:04:43.036Z,1005.80